sensor_id;sensor_type;location;lat;lon;timestamp;P1;durP1;ratioP1;P2;durP2;ratioP2
22318;SDS011;11327;52.334;9.506;2023-02-01T00:03:15;17.05;;;2.95;;
22318;SDS011;11327;52.334;9.506;2023-02-01T00:06:36;18.95;;;2.62;;
22318;SDS011;11327;52.334;9.506;2023-02-01T00:09:56;13.65;;;2.58;;
22318;SDS011;11327;52.334;9.506;2023-02-01T00:13:17;14.03;;;2.47;;
22318;SDS011;11327;52.334;9.506;2023-02-01T00:16:38;17.10;;;3.05;;
22318;SDS011;11327;52.334;9.506;2023-02-01T00:19:58;12.78;;;2.55;;
22318;SDS011;11327;52.334;9.506;2023-02-01T00:23:19;12.10;;;2.42;;
22318;SDS011;11327;52.334;9.506;2023-02-01T00:26:41;16.90;;;2.80;;
22318;SDS011;11327;52.334;9.506;2023-02-01T00:30:04;16.23;;;3.17;;
22318;SDS011;11327;52.334;9.506;2023-02-01T00:33:25;17.10;;;3.40;;
22318;SDS011;11327;52.334;9.506;2023-02-01T00:36:46;16.05;;;3.10;;
22318;SDS011;11327;52.334;9.506;2023-02-01T00:40:07;19.52;;;3.47;;
22318;SDS011;11327;52.334;9.506;2023-02-01T00:43:30;20.72;;;3.60;;
22318;SDS011;11327;52.334;9.506;2023-02-01T00:46:51;16.57;;;2.87;;
22318;SDS011;11327;52.334;9.506;2023-02-01T00:50:12;16.93;;;3.70;;
22318;SDS011;11327;52.334;9.506;2023-02-01T00:53:33;16.70;;;3.00;;
22318;SDS011;11327;52.334;9.506;2023-02-01T00:56:54;17.27;;;3.08;;
22318;SDS011;11327;52.334;9.506;2023-02-01T01:00:15;10.98;;;2.50;;
22318;SDS011;11327;52.334;9.506;2023-02-01T01:03:38;17.98;;;2.65;;
22318;SDS011;11327;52.334;9.506;2023-02-01T01:07:01;16.82;;;2.83;;
22318;SDS011;11327;52.334;9.506;2023-02-01T01:10:22;19.80;;;3.22;;
22318;SDS011;11327;52.334;9.506;2023-02-01T01:13:42;15.28;;;2.90;;
22318;SDS011;11327;52.334;9.506;2023-02-01T01:17:04;16.73;;;2.95;;
22318;SDS011;11327;52.334;9.506;2023-02-01T01:20:24;16.52;;;3.08;;
22318;SDS011;11327;52.334;9.506;2023-02-01T01:23:45;15.70;;;2.55;;
22318;SDS011;11327;52.334;9.506;2023-02-01T01:27:07;15.68;;;2.95;;
22318;SDS011;11327;52.334;9.506;2023-02-01T01:30:28;14.90;;;2.85;;
22318;SDS011;11327;52.334;9.506;2023-02-01T01:33:49;17.32;;;3.12;;
22318;SDS011;11327;52.334;9.506;2023-02-01T01:37:14;15.85;;;3.25;;
22318;SDS011;11327;52.334;9.506;2023-02-01T01:40:35;16.93;;;3.22;;
22318;SDS011;11327;52.334;9.506;2023-02-01T01:44:00;17.77;;;3.00;;
22318;SDS011;11327;52.334;9.506;2023-02-01T01:47:23;18.75;;;2.85;;
22318;SDS011;11327;52.334;9.506;2023-02-01T01:50:56;14.68;;;2.60;;
22318;SDS011;11327;52.334;9.506;2023-02-01T01:54:23;17.10;;;2.83;;
22318;SDS011;11327;52.334;9.506;2023-02-01T01:57:47;17.87;;;2.80;;
22318;SDS011;11327;52.334;9.506;2023-02-01T02:01:10;14.38;;;2.80;;
22318;SDS011;11327;52.334;9.506;2023-02-01T02:04:31;16.37;;;2.98;;
22318;SDS011;11327;52.334;9.506;2023-02-01T02:07:53;15.28;;;3.27;;
22318;SDS011;11327;52.334;9.506;2023-02-01T02:11:17;14.33;;;2.90;;
22318;SDS011;11327;52.334;9.506;2023-02-01T02:14:38;15.95;;;3.25;;
22318;SDS011;11327;52.334;9.506;2023-02-01T02:18:09;16.30;;;3.00;;
22318;SDS011;11327;52.334;9.506;2023-02-01T02:29:22;23.25;;;3.20;;
22318;SDS011;11327;52.334;9.506;2023-02-01T02:43:22;18.48;;;3.30;;
22318;SDS011;11327;52.334;9.506;2023-02-01T02:47:13;13.48;;;3.08;;
22318;SDS011;11327;52.334;9.506;2023-02-01T02:50:46;15.32;;;3.05;;
22318;SDS011;11327;52.334;9.506;2023-02-01T02:54:28;15.32;;;3.33;;
22318;SDS011;11327;52.334;9.506;2023-02-01T02:58:07;14.60;;;3.42;;
22318;SDS011;11327;52.334;9.506;2023-02-01T03:01:49;18.62;;;2.90;;
22318;SDS011;11327;52.334;9.506;2023-02-01T03:05:40;17.32;;;3.30;;
22318;SDS011;11327;52.334;9.506;2023-02-01T03:09:00;14.53;;;2.72;;
22318;SDS011;11327;52.334;9.506;2023-02-01T03:12:24;18.12;;;3.30;;
22318;SDS011;11327;52.334;9.506;2023-02-01T03:16:07;12.00;;;2.75;;
22318;SDS011;11327;52.334;9.506;2023-02-01T03:19:37;16.37;;;3.50;;
22318;SDS011;11327;52.334;9.506;2023-02-01T03:23:06;17.05;;;3.02;;
22318;SDS011;11327;52.334;9.506;2023-02-01T03:26:27;11.40;;;2.98;;
22318;SDS011;11327;52.334;9.506;2023-02-01T03:29:52;20.95;;;3.62;;
22318;SDS011;11327;52.334;9.506;2023-02-01T03:33:21;12.95;;;3.17;;
22318;SDS011;11327;52.334;9.506;2023-02-01T03:36:49;14.43;;;3.02;;
22318;SDS011;11327;52.334;9.506;2023-02-01T03:40:16;19.27;;;3.17;;
22318;SDS011;11327;52.334;9.506;2023-02-01T03:43:45;14.07;;;3.45;;
22318;SDS011;11327;52.334;9.506;2023-02-01T03:47:25;13.60;;;2.98;;
22318;SDS011;11327;52.334;9.506;2023-02-01T03:50:50;18.27;;;3.50;;
22318;SDS011;11327;52.334;9.506;2023-02-01T03:54:14;15.48;;;3.72;;
22318;SDS011;11327;52.334;9.506;2023-02-01T03:57:37;19.95;;;3.50;;
22318;SDS011;11327;52.334;9.506;2023-02-01T04:01:00;15.83;;;3.77;;
22318;SDS011;11327;52.334;9.506;2023-02-01T04:04:21;14.23;;;3.37;;
22318;SDS011;11327;52.334;9.506;2023-02-01T04:07:42;13.18;;;3.80;;
22318;SDS011;11327;52.334;9.506;2023-02-01T04:11:03;15.80;;;3.35;;
22318;SDS011;11327;52.334;9.506;2023-02-01T04:14:24;18.50;;;3.45;;
22318;SDS011;11327;52.334;9.506;2023-02-01T04:17:44;20.37;;;4.25;;
22318;SDS011;11327;52.334;9.506;2023-02-01T04:21:05;18.25;;;3.85;;
22318;SDS011;11327;52.334;9.506;2023-02-01T04:24:26;19.55;;;4.15;;
22318;SDS011;11327;52.334;9.506;2023-02-01T04:27:47;16.50;;;3.83;;
22318;SDS011;11327;52.334;9.506;2023-02-01T04:31:07;17.73;;;3.77;;
22318;SDS011;11327;52.334;9.506;2023-02-01T04:34:28;17.05;;;3.47;;
22318;SDS011;11327;52.334;9.506;2023-02-01T04:37:49;17.40;;;3.65;;
22318;SDS011;11327;52.334;9.506;2023-02-01T04:41:10;15.40;;;3.70;;
22318;SDS011;11327;52.334;9.506;2023-02-01T04:44:30;15.00;;;3.77;;
22318;SDS011;11327;52.334;9.506;2023-02-01T04:47:51;13.32;;;3.45;;
22318;SDS011;11327;52.334;9.506;2023-02-01T04:51:12;13.90;;;3.65;;
22318;SDS011;11327;52.334;9.506;2023-02-01T04:54:33;14.18;;;3.95;;
22318;SDS011;11327;52.334;9.506;2023-02-01T04:57:54;19.40;;;4.15;;
22318;SDS011;11327;52.334;9.506;2023-02-01T05:01:15;15.20;;;3.87;;
22318;SDS011;11327;52.334;9.506;2023-02-01T05:04:36;16.17;;;4.00;;
22318;SDS011;11327;52.334;9.506;2023-02-01T05:07:57;16.62;;;3.70;;
22318;SDS011;11327;52.334;9.506;2023-02-01T05:11:18;17.82;;;3.58;;
22318;SDS011;11327;52.334;9.506;2023-02-01T05:14:57;11.68;;;3.45;;
22318;SDS011;11327;52.334;9.506;2023-02-01T05:18:17;15.00;;;3.92;;
22318;SDS011;11327;52.334;9.506;2023-02-01T05:21:38;15.03;;;4.28;;
22318;SDS011;11327;52.334;9.506;2023-02-01T05:24:59;19.10;;;4.40;;
22318;SDS011;11327;52.334;9.506;2023-02-01T05:28:19;13.75;;;3.52;;
22318;SDS011;11327;52.334;9.506;2023-02-01T05:31:40;12.90;;;3.83;;
22318;SDS011;11327;52.334;9.506;2023-02-01T05:35:01;15.95;;;3.50;;
22318;SDS011;11327;52.334;9.506;2023-02-01T05:38:22;13.62;;;3.60;;
22318;SDS011;11327;52.334;9.506;2023-02-01T05:41:43;17.60;;;4.10;;
22318;SDS011;11327;52.334;9.506;2023-02-01T05:45:04;19.50;;;3.70;;
22318;SDS011;11327;52.334;9.506;2023-02-01T05:48:27;13.65;;;3.58;;
22318;SDS011;11327;52.334;9.506;2023-02-01T05:51:48;12.25;;;3.42;;
22318;SDS011;11327;52.334;9.506;2023-02-01T05:55:08;16.42;;;4.15;;
22318;SDS011;11327;52.334;9.506;2023-02-01T05:58:29;12.68;;;3.83;;
22318;SDS011;11327;52.334;9.506;2023-02-01T06:01:50;18.23;;;3.98;;
22318;SDS011;11327;52.334;9.506;2023-02-01T06:05:11;15.28;;;3.47;;
22318;SDS011;11327;52.334;9.506;2023-02-01T06:08:32;14.55;;;3.65;;
22318;SDS011;11327;52.334;9.506;2023-02-01T06:11:52;15.53;;;3.72;;
22318;SDS011;11327;52.334;9.506;2023-02-01T06:15:13;17.10;;;3.70;;
22318;SDS011;11327;52.334;9.506;2023-02-01T06:18:38;14.45;;;3.75;;
22318;SDS011;11327;52.334;9.506;2023-02-01T06:21:59;11.33;;;3.65;;
22318;SDS011;11327;52.334;9.506;2023-02-01T06:25:19;12.40;;;3.30;;
22318;SDS011;11327;52.334;9.506;2023-02-01T06:28:41;13.08;;;3.30;;
22318;SDS011;11327;52.334;9.506;2023-02-01T06:32:02;14.78;;;3.77;;
22318;SDS011;11327;52.334;9.506;2023-02-01T06:35:23;12.37;;;3.60;;
22318;SDS011;11327;52.334;9.506;2023-02-01T06:38:44;14.30;;;4.15;;
22318;SDS011;11327;52.334;9.506;2023-02-01T06:42:05;9.15;;;3.05;;
22318;SDS011;11327;52.334;9.506;2023-02-01T06:45:26;15.48;;;3.87;;
22318;SDS011;11327;52.334;9.506;2023-02-01T06:48:46;10.88;;;3.35;;
22318;SDS011;11327;52.334;9.506;2023-02-01T06:52:07;13.60;;;3.62;;
22318;SDS011;11327;52.334;9.506;2023-02-01T06:55:28;13.95;;;3.85;;
22318;SDS011;11327;52.334;9.506;2023-02-01T06:58:49;13.68;;;3.70;;
22318;SDS011;11327;52.334;9.506;2023-02-01T07:02:10;12.05;;;3.62;;
22318;SDS011;11327;52.334;9.506;2023-02-01T07:05:32;17.00;;;4.22;;
22318;SDS011;11327;52.334;9.506;2023-02-01T07:08:52;15.45;;;3.98;;
22318;SDS011;11327;52.334;9.506;2023-02-01T07:12:15;14.65;;;4.10;;
22318;SDS011;11327;52.334;9.506;2023-02-01T07:15:36;16.25;;;3.98;;
22318;SDS011;11327;52.334;9.506;2023-02-01T07:18:56;13.38;;;3.95;;
22318;SDS011;11327;52.334;9.506;2023-02-01T07:22:17;16.57;;;3.90;;
22318;SDS011;11327;52.334;9.506;2023-02-01T07:25:38;15.25;;;3.87;;
22318;SDS011;11327;52.334;9.506;2023-02-01T07:28:59;16.80;;;3.75;;
22318;SDS011;11327;52.334;9.506;2023-02-01T07:32:20;16.40;;;3.50;;
22318;SDS011;11327;52.334;9.506;2023-02-01T07:35:41;15.15;;;3.42;;
22318;SDS011;11327;52.334;9.506;2023-02-01T07:39:02;12.85;;;3.20;;
22318;SDS011;11327;52.334;9.506;2023-02-01T07:42:24;18.48;;;3.52;;
22318;SDS011;11327;52.334;9.506;2023-02-01T07:45:50;12.50;;;2.77;;
22318;SDS011;11327;52.334;9.506;2023-02-01T07:49:09;16.90;;;3.62;;
22318;SDS011;11327;52.334;9.506;2023-02-01T07:52:29;11.93;;;3.00;;
22318;SDS011;11327;52.334;9.506;2023-02-01T07:55:50;13.78;;;3.22;;
22318;SDS011;11327;52.334;9.506;2023-02-01T07:59:11;13.28;;;3.12;;
22318;SDS011;11327;52.334;9.506;2023-02-01T08:02:32;14.73;;;3.30;;
22318;SDS011;11327;52.334;9.506;2023-02-01T08:05:55;12.60;;;3.17;;
22318;SDS011;11327;52.334;9.506;2023-02-01T08:09:16;14.20;;;3.02;;
22318;SDS011;11327;52.334;9.506;2023-02-01T08:12:37;16.15;;;3.42;;
22318;SDS011;11327;52.334;9.506;2023-02-01T08:15:59;15.20;;;3.08;;
22318;SDS011;11327;52.334;9.506;2023-02-01T08:19:20;15.05;;;3.33;;
22318;SDS011;11327;52.334;9.506;2023-02-01T08:22:41;11.20;;;2.87;;
22318;SDS011;11327;52.334;9.506;2023-02-01T08:26:15;12.40;;;3.12;;
22318;SDS011;11327;52.334;9.506;2023-02-01T08:29:38;13.20;;;3.17;;
22318;SDS011;11327;52.334;9.506;2023-02-01T08:32:59;14.83;;;3.80;;
22318;SDS011;11327;52.334;9.506;2023-02-01T08:36:21;14.00;;;3.10;;
22318;SDS011;11327;52.334;9.506;2023-02-01T08:39:43;14.33;;;3.30;;
22318;SDS011;11327;52.334;9.506;2023-02-01T08:43:05;14.43;;;3.22;;
22318;SDS011;11327;52.334;9.506;2023-02-01T08:46:25;16.07;;;3.50;;
22318;SDS011;11327;52.334;9.506;2023-02-01T08:49:46;10.58;;;2.50;;
22318;SDS011;11327;52.334;9.506;2023-02-01T08:53:07;10.20;;;2.77;;
22318;SDS011;11327;52.334;9.506;2023-02-01T08:56:27;10.15;;;2.67;;
22318;SDS011;11327;52.334;9.506;2023-02-01T08:59:48;13.70;;;3.25;;
22318;SDS011;11327;52.334;9.506;2023-02-01T09:03:09;11.93;;;3.17;;
22318;SDS011;11327;52.334;9.506;2023-02-01T09:06:31;11.12;;;2.40;;
22318;SDS011;11327;52.334;9.506;2023-02-01T09:09:52;15.65;;;3.12;;
22318;SDS011;11327;52.334;9.506;2023-02-01T09:13:14;13.93;;;2.98;;
22318;SDS011;11327;52.334;9.506;2023-02-01T09:16:35;15.53;;;3.17;;
22318;SDS011;11327;52.334;9.506;2023-02-01T09:19:56;13.48;;;3.12;;
22318;SDS011;11327;52.334;9.506;2023-02-01T09:23:16;11.00;;;3.20;;
22318;SDS011;11327;52.334;9.506;2023-02-01T09:26:37;12.25;;;3.10;;
22318;SDS011;11327;52.334;9.506;2023-02-01T09:29:58;11.05;;;2.90;;
22318;SDS011;11327;52.334;9.506;2023-02-01T09:33:18;11.75;;;3.20;;
22318;SDS011;11327;52.334;9.506;2023-02-01T09:36:41;12.05;;;2.75;;
22318;SDS011;11327;52.334;9.506;2023-02-01T09:40:02;15.55;;;3.00;;
22318;SDS011;11327;52.334;9.506;2023-02-01T09:47:10;11.80;;;2.60;;
22318;SDS011;11327;52.334;9.506;2023-02-01T09:50:38;12.45;;;3.00;;
22318;SDS011;11327;52.334;9.506;2023-02-01T09:54:05;14.40;;;2.95;;
22318;SDS011;11327;52.334;9.506;2023-02-01T09:57:33;13.85;;;2.87;;
22318;SDS011;11327;52.334;9.506;2023-02-01T10:01:02;14.43;;;3.12;;
22318;SDS011;11327;52.334;9.506;2023-02-01T10:04:25;13.08;;;2.90;;
22318;SDS011;11327;52.334;9.506;2023-02-01T10:07:49;11.68;;;2.65;;
22318;SDS011;11327;52.334;9.506;2023-02-01T10:11:38;11.12;;;3.33;;
22318;SDS011;11327;52.334;9.506;2023-02-01T10:18:57;13.22;;;2.77;;
22318;SDS011;11327;52.334;9.506;2023-02-01T10:29:31;13.10;;;2.87;;
22318;SDS011;11327;52.334;9.506;2023-02-01T10:32:54;11.90;;;2.80;;
22318;SDS011;11327;52.334;9.506;2023-02-01T10:36:19;15.05;;;3.05;;
22318;SDS011;11327;52.334;9.506;2023-02-01T10:39:41;11.65;;;3.08;;
22318;SDS011;11327;52.334;9.506;2023-02-01T10:43:01;10.48;;;2.22;;
22318;SDS011;11327;52.334;9.506;2023-02-01T10:46:23;11.88;;;3.45;;
22318;SDS011;11327;52.334;9.506;2023-02-01T10:53:14;15.03;;;3.00;;
22318;SDS011;11327;52.334;9.506;2023-02-01T10:56:39;12.35;;;3.00;;
22318;SDS011;11327;52.334;9.506;2023-02-01T11:00:02;9.15;;;2.22;;
22318;SDS011;11327;52.334;9.506;2023-02-01T11:07:08;12.28;;;3.00;;
22318;SDS011;11327;52.334;9.506;2023-02-01T11:10:40;10.15;;;2.33;;
22318;SDS011;11327;52.334;9.506;2023-02-01T11:14:10;15.72;;;2.87;;
22318;SDS011;11327;52.334;9.506;2023-02-01T11:17:35;14.18;;;3.42;;
22318;SDS011;11327;52.334;9.506;2023-02-01T11:20:58;9.70;;;2.50;;
22318;SDS011;11327;52.334;9.506;2023-02-01T11:24:24;12.70;;;2.75;;
22318;SDS011;11327;52.334;9.506;2023-02-01T11:27:50;13.20;;;3.30;;
22318;SDS011;11327;52.334;9.506;2023-02-01T11:31:14;11.28;;;2.70;;
22318;SDS011;11327;52.334;9.506;2023-02-01T11:34:40;10.95;;;2.55;;
22318;SDS011;11327;52.334;9.506;2023-02-01T11:42:00;12.43;;;3.08;;
22318;SDS011;11327;52.334;9.506;2023-02-01T11:48:48;11.38;;;3.25;;
22318;SDS011;11327;52.334;9.506;2023-02-01T11:55:56;9.60;;;3.10;;
22318;SDS011;11327;52.334;9.506;2023-02-01T11:59:45;12.58;;;2.80;;
22318;SDS011;11327;52.334;9.506;2023-02-01T12:06:56;13.35;;;2.45;;
22318;SDS011;11327;52.334;9.506;2023-02-01T12:17:42;10.88;;;2.70;;
22318;SDS011;11327;52.334;9.506;2023-02-01T12:24:48;13.25;;;3.27;;
22318;SDS011;11327;52.334;9.506;2023-02-01T12:39:22;11.93;;;2.80;;
22318;SDS011;11327;52.334;9.506;2023-02-01T12:42:51;10.58;;;2.92;;
22318;SDS011;11327;52.334;9.506;2023-02-01T12:46:21;9.80;;;2.50;;
22318;SDS011;11327;52.334;9.506;2023-02-01T12:49:50;8.08;;;2.62;;
22318;SDS011;11327;52.334;9.506;2023-02-01T12:53:18;12.58;;;2.15;;
22318;SDS011;11327;52.334;9.506;2023-02-01T12:56:52;9.45;;;2.30;;
22318;SDS011;11327;52.334;9.506;2023-02-01T13:00:23;7.22;;;2.20;;
22318;SDS011;11327;52.334;9.506;2023-02-01T13:07:34;7.40;;;2.22;;
22318;SDS011;11327;52.334;9.506;2023-02-01T13:11:03;6.97;;;1.75;;
22318;SDS011;11327;52.334;9.506;2023-02-01T13:17:54;4.95;;;2.00;;
22318;SDS011;11327;52.334;9.506;2023-02-01T13:21:27;6.12;;;2.00;;
22318;SDS011;11327;52.334;9.506;2023-02-01T13:24:55;5.78;;;1.90;;
22318;SDS011;11327;52.334;9.506;2023-02-01T13:28:26;5.15;;;1.67;;
22318;SDS011;11327;52.334;9.506;2023-02-01T13:42:50;0.62;;;0.30;;
22318;SDS011;11327;52.334;9.506;2023-02-01T13:46:14;1.72;;;0.57;;
22318;SDS011;11327;52.334;9.506;2023-02-01T13:49:37;1.77;;;0.90;;
22318;SDS011;11327;52.334;9.506;2023-02-01T13:53:01;1.00;;;0.40;;
22318;SDS011;11327;52.334;9.506;2023-02-01T13:56:40;0.93;;;0.30;;
22318;SDS011;11327;52.334;9.506;2023-02-01T14:00:06;0.68;;;0.37;;
22318;SDS011;11327;52.334;9.506;2023-02-01T14:03:45;1.37;;;0.40;;
22318;SDS011;11327;52.334;9.506;2023-02-01T14:07:15;1.17;;;0.40;;
22318;SDS011;11327;52.334;9.506;2023-02-01T14:17:39;0.88;;;0.20;;
22318;SDS011;11327;52.334;9.506;2023-02-01T14:24:51;0.30;;;0.20;;
22318;SDS011;11327;52.334;9.506;2023-02-01T14:28:23;1.20;;;0.30;;
22318;SDS011;11327;52.334;9.506;2023-02-01T14:31:47;2.20;;;0.60;;
22318;SDS011;11327;52.334;9.506;2023-02-01T14:35:19;1.80;;;0.50;;
22318;SDS011;11327;52.334;9.506;2023-02-01T14:42:14;1.62;;;0.60;;
22318;SDS011;11327;52.334;9.506;2023-02-01T14:49:05;4.55;;;0.70;;
22318;SDS011;11327;52.334;9.506;2023-02-01T14:52:31;2.27;;;0.65;;
22318;SDS011;11327;52.334;9.506;2023-02-01T14:56:07;1.67;;;0.55;;
22318;SDS011;11327;52.334;9.506;2023-02-01T14:59:32;4.42;;;0.80;;
22318;SDS011;11327;52.334;9.506;2023-02-01T15:02:55;3.55;;;0.80;;
22318;SDS011;11327;52.334;9.506;2023-02-01T15:09:55;3.35;;;0.82;;
22318;SDS011;11327;52.334;9.506;2023-02-01T15:13:20;5.53;;;1.25;;
22318;SDS011;11327;52.334;9.506;2023-02-01T15:16:42;4.72;;;1.32;;
22318;SDS011;11327;52.334;9.506;2023-02-01T15:20:12;5.67;;;1.45;;
22318;SDS011;11327;52.334;9.506;2023-02-01T15:23:35;7.37;;;1.82;;
22318;SDS011;11327;52.334;9.506;2023-02-01T15:27:02;6.40;;;1.27;;
22318;SDS011;11327;52.334;9.506;2023-02-01T15:30:28;6.78;;;1.15;;
22318;SDS011;11327;52.334;9.506;2023-02-01T15:33:56;5.60;;;1.57;;
22318;SDS011;11327;52.334;9.506;2023-02-01T15:37:20;5.75;;;1.50;;
22318;SDS011;11327;52.334;9.506;2023-02-01T15:44:31;5.60;;;1.80;;
22318;SDS011;11327;52.334;9.506;2023-02-01T15:47:57;4.65;;;1.47;;
22318;SDS011;11327;52.334;9.506;2023-02-01T15:51:20;7.35;;;2.60;;
22318;SDS011;11327;52.334;9.506;2023-02-01T15:54:45;5.95;;;2.10;;
22318;SDS011;11327;52.334;9.506;2023-02-01T15:58:19;8.40;;;2.00;;
22318;SDS011;11327;52.334;9.506;2023-02-01T16:01:41;9.10;;;2.22;;
22318;SDS011;11327;52.334;9.506;2023-02-01T16:05:02;8.85;;;2.10;;
22318;SDS011;11327;52.334;9.506;2023-02-01T16:08:26;10.30;;;2.77;;
22318;SDS011;11327;52.334;9.506;2023-02-01T16:11:58;10.98;;;3.90;;
22318;SDS011;11327;52.334;9.506;2023-02-01T16:15:20;7.10;;;2.40;;
22318;SDS011;11327;52.334;9.506;2023-02-01T16:18:41;6.25;;;1.67;;
22318;SDS011;11327;52.334;9.506;2023-02-01T16:22:02;8.68;;;2.22;;
22318;SDS011;11327;52.334;9.506;2023-02-01T16:25:23;6.58;;;1.70;;
22318;SDS011;11327;52.334;9.506;2023-02-01T16:28:43;6.50;;;1.57;;
22318;SDS011;11327;52.334;9.506;2023-02-01T16:32:05;7.62;;;1.55;;
22318;SDS011;11327;52.334;9.506;2023-02-01T16:35:27;9.35;;;1.95;;
22318;SDS011;11327;52.334;9.506;2023-02-01T16:38:51;8.20;;;1.77;;
22318;SDS011;11327;52.334;9.506;2023-02-01T16:42:14;12.10;;;2.55;;
22318;SDS011;11327;52.334;9.506;2023-02-01T16:49:52;11.78;;;1.87;;
22318;SDS011;11327;52.334;9.506;2023-02-01T16:53:13;6.37;;;1.80;;
22318;SDS011;11327;52.334;9.506;2023-02-01T16:56:36;10.25;;;3.05;;
22318;SDS011;11327;52.334;9.506;2023-02-01T17:00:00;12.00;;;2.65;;
22318;SDS011;11327;52.334;9.506;2023-02-01T17:03:24;9.70;;;2.52;;
22318;SDS011;11327;52.334;9.506;2023-02-01T17:06:45;11.40;;;3.27;;
22318;SDS011;11327;52.334;9.506;2023-02-01T17:10:23;11.48;;;2.55;;
22318;SDS011;11327;52.334;9.506;2023-02-01T17:13:47;8.03;;;1.80;;
22318;SDS011;11327;52.334;9.506;2023-02-01T17:17:08;9.68;;;2.17;;
22318;SDS011;11327;52.334;9.506;2023-02-01T17:20:30;9.20;;;2.30;;
22318;SDS011;11327;52.334;9.506;2023-02-01T17:23:52;13.78;;;2.52;;
22318;SDS011;11327;52.334;9.506;2023-02-01T17:27:13;10.38;;;2.98;;
22318;SDS011;11327;52.334;9.506;2023-02-01T17:30:35;15.05;;;3.70;;
22318;SDS011;11327;52.334;9.506;2023-02-01T17:33:57;13.88;;;3.95;;
22318;SDS011;11327;52.334;9.506;2023-02-01T17:37:22;15.28;;;4.22;;
22318;SDS011;11327;52.334;9.506;2023-02-01T17:40:42;11.60;;;3.50;;
22318;SDS011;11327;52.334;9.506;2023-02-01T17:44:03;16.00;;;3.42;;
22318;SDS011;11327;52.334;9.506;2023-02-01T17:47:24;14.85;;;3.17;;
22318;SDS011;11327;52.334;9.506;2023-02-01T17:50:45;12.05;;;3.40;;
22318;SDS011;11327;52.334;9.506;2023-02-01T17:54:09;14.53;;;3.20;;
22318;SDS011;11327;52.334;9.506;2023-02-01T17:57:33;16.55;;;3.20;;
22318;SDS011;11327;52.334;9.506;2023-02-01T18:00:53;16.12;;;3.72;;
22318;SDS011;11327;52.334;9.506;2023-02-01T18:04:15;13.30;;;3.08;;
22318;SDS011;11327;52.334;9.506;2023-02-01T18:07:37;16.27;;;3.15;;
22318;SDS011;11327;52.334;9.506;2023-02-01T18:10:59;15.65;;;3.50;;
22318;SDS011;11327;52.334;9.506;2023-02-01T18:14:21;19.42;;;3.95;;
22318;SDS011;11327;52.334;9.506;2023-02-01T18:17:42;13.53;;;3.60;;
22318;SDS011;11327;52.334;9.506;2023-02-01T18:21:03;15.88;;;3.40;;
22318;SDS011;11327;52.334;9.506;2023-02-01T18:24:24;13.72;;;3.65;;
22318;SDS011;11327;52.334;9.506;2023-02-01T18:27:47;17.20;;;4.50;;
22318;SDS011;11327;52.334;9.506;2023-02-01T18:31:25;18.12;;;5.62;;
22318;SDS011;11327;52.334;9.506;2023-02-01T18:34:49;14.63;;;4.40;;
22318;SDS011;11327;52.334;9.506;2023-02-01T18:38:09;18.15;;;3.65;;
22318;SDS011;11327;52.334;9.506;2023-02-01T18:41:30;11.63;;;3.25;;
22318;SDS011;11327;52.334;9.506;2023-02-01T18:44:51;13.30;;;3.02;;
22318;SDS011;11327;52.334;9.506;2023-02-01T18:48:13;14.28;;;2.90;;
22318;SDS011;11327;52.334;9.506;2023-02-01T18:51:34;14.80;;;3.00;;
22318;SDS011;11327;52.334;9.506;2023-02-01T18:54:55;16.20;;;3.40;;
22318;SDS011;11327;52.334;9.506;2023-02-01T18:58:16;13.30;;;3.20;;
22318;SDS011;11327;52.334;9.506;2023-02-01T19:01:37;17.05;;;3.95;;
22318;SDS011;11327;52.334;9.506;2023-02-01T19:04:58;15.10;;;3.65;;
22318;SDS011;11327;52.334;9.506;2023-02-01T19:08:19;14.13;;;3.30;;
22318;SDS011;11327;52.334;9.506;2023-02-01T19:11:40;14.70;;;4.00;;
22318;SDS011;11327;52.334;9.506;2023-02-01T19:15:00;14.07;;;3.00;;
22318;SDS011;11327;52.334;9.506;2023-02-01T19:18:21;12.58;;;2.58;;
22318;SDS011;11327;52.334;9.506;2023-02-01T19:21:42;11.70;;;2.70;;
22318;SDS011;11327;52.334;9.506;2023-02-01T19:25:04;14.58;;;2.33;;
22318;SDS011;11327;52.334;9.506;2023-02-01T19:28:25;10.98;;;2.12;;
22318;SDS011;11327;52.334;9.506;2023-02-01T19:31:46;15.63;;;2.33;;
22318;SDS011;11327;52.334;9.506;2023-02-01T19:35:07;12.82;;;4.12;;
22318;SDS011;11327;52.334;9.506;2023-02-01T19:38:29;13.22;;;2.67;;
22318;SDS011;11327;52.334;9.506;2023-02-01T19:41:50;13.15;;;2.08;;
22318;SDS011;11327;52.334;9.506;2023-02-01T19:45:13;10.13;;;2.00;;
22318;SDS011;11327;52.334;9.506;2023-02-01T19:48:34;14.10;;;2.75;;
22318;SDS011;11327;52.334;9.506;2023-02-01T19:51:55;15.13;;;2.40;;
22318;SDS011;11327;52.334;9.506;2023-02-01T19:55:16;10.75;;;2.12;;
22318;SDS011;11327;52.334;9.506;2023-02-01T19:58:37;14.20;;;2.62;;
22318;SDS011;11327;52.334;9.506;2023-02-01T20:01:58;12.68;;;2.67;;
22318;SDS011;11327;52.334;9.506;2023-02-01T20:05:19;12.88;;;2.60;;
22318;SDS011;11327;52.334;9.506;2023-02-01T20:08:39;13.78;;;2.30;;
22318;SDS011;11327;52.334;9.506;2023-02-01T20:12:00;13.08;;;2.52;;
22318;SDS011;11327;52.334;9.506;2023-02-01T20:15:21;11.65;;;1.85;;
22318;SDS011;11327;52.334;9.506;2023-02-01T20:18:43;13.68;;;2.58;;
22318;SDS011;11327;52.334;9.506;2023-02-01T20:22:04;12.18;;;2.33;;
22318;SDS011;11327;52.334;9.506;2023-02-01T20:25:25;15.98;;;2.83;;
22318;SDS011;11327;52.334;9.506;2023-02-01T20:28:46;11.10;;;2.55;;
22318;SDS011;11327;52.334;9.506;2023-02-01T20:32:07;15.15;;;2.25;;
22318;SDS011;11327;52.334;9.506;2023-02-01T20:35:28;13.88;;;2.60;;
22318;SDS011;11327;52.334;9.506;2023-02-01T20:38:48;17.30;;;2.80;;
22318;SDS011;11327;52.334;9.506;2023-02-01T20:42:09;13.03;;;2.62;;
22318;SDS011;11327;52.334;9.506;2023-02-01T20:45:30;11.78;;;2.50;;
22318;SDS011;11327;52.334;9.506;2023-02-01T20:48:50;13.75;;;2.47;;
22318;SDS011;11327;52.334;9.506;2023-02-01T20:52:11;15.65;;;2.25;;
22318;SDS011;11327;52.334;9.506;2023-02-01T20:55:32;11.80;;;2.35;;
22318;SDS011;11327;52.334;9.506;2023-02-01T20:58:53;14.07;;;2.60;;
22318;SDS011;11327;52.334;9.506;2023-02-01T21:02:15;16.75;;;3.12;;
22318;SDS011;11327;52.334;9.506;2023-02-01T21:05:36;12.15;;;2.52;;
22318;SDS011;11327;52.334;9.506;2023-02-01T21:09:00;11.40;;;2.10;;
22318;SDS011;11327;52.334;9.506;2023-02-01T21:12:20;14.87;;;2.92;;
22318;SDS011;11327;52.334;9.506;2023-02-01T21:15:42;14.70;;;3.08;;
22318;SDS011;11327;52.334;9.506;2023-02-01T21:19:03;13.83;;;2.30;;
22318;SDS011;11327;52.334;9.506;2023-02-01T21:22:25;12.98;;;2.77;;
22318;SDS011;11327;52.334;9.506;2023-02-01T21:25:46;12.07;;;2.15;;
22318;SDS011;11327;52.334;9.506;2023-02-01T21:29:08;15.05;;;2.22;;
22318;SDS011;11327;52.334;9.506;2023-02-01T21:32:30;13.43;;;2.20;;
22318;SDS011;11327;52.334;9.506;2023-02-01T21:35:51;13.80;;;2.22;;
22318;SDS011;11327;52.334;9.506;2023-02-01T21:39:12;17.07;;;2.27;;
22318;SDS011;11327;52.334;9.506;2023-02-01T21:42:32;16.35;;;2.37;;
22318;SDS011;11327;52.334;9.506;2023-02-01T21:45:53;15.10;;;2.90;;
22318;SDS011;11327;52.334;9.506;2023-02-01T21:49:14;16.00;;;2.92;;
22318;SDS011;11327;52.334;9.506;2023-02-01T21:52:35;15.63;;;2.72;;
22318;SDS011;11327;52.334;9.506;2023-02-01T21:55:57;16.48;;;2.75;;
22318;SDS011;11327;52.334;9.506;2023-02-01T21:59:18;14.38;;;2.30;;
22318;SDS011;11327;52.334;9.506;2023-02-01T22:02:39;14.68;;;2.25;;
22318;SDS011;11327;52.334;9.506;2023-02-01T22:06:00;13.18;;;2.10;;
22318;SDS011;11327;52.334;9.506;2023-02-01T22:09:21;10.88;;;1.87;;
22318;SDS011;11327;52.334;9.506;2023-02-01T22:12:43;8.18;;;1.72;;
22318;SDS011;11327;52.334;9.506;2023-02-01T22:16:04;11.18;;;1.72;;